地図

経路データ

SID SEASON NUMBER BASIN SUBBASIN NAME ISO_TIME NATURE LAT LON WMO_WIND WMO_PRES WMO_AGENCY TRACK_TYPE DIST2LAND LANDFALL IFLAG USA_AGENCY USA_ATCF_ID USA_LAT USA_LON USA_RECORD USA_STATUS USA_WIND USA_PRES USA_SSHS USA_R34_NE USA_R34_SE USA_R34_SW USA_R34_NW USA_R50_NE USA_R50_SE USA_R50_SW USA_R50_NW USA_R64_NE USA_R64_SE USA_R64_SW USA_R64_NW USA_POCI USA_ROCI USA_RMW USA_EYE TOKYO_LAT TOKYO_LON TOKYO_GRADE TOKYO_WIND TOKYO_PRES TOKYO_R50_DIR TOKYO_R50_LONG TOKYO_R50_SHORT TOKYO_R30_DIR TOKYO_R30_LONG TOKYO_R30_SHORT TOKYO_LAND CMA_LAT CMA_LON CMA_CAT CMA_WIND CMA_PRES HKO_LAT HKO_LON HKO_CAT HKO_WIND HKO_PRES NEWDELHI_LAT NEWDELHI_LON NEWDELHI_GRADE NEWDELHI_WIND NEWDELHI_PRES NEWDELHI_CI NEWDELHI_DP NEWDELHI_POCI REUNION_LAT REUNION_LON REUNION_TYPE REUNION_WIND REUNION_PRES REUNION_TNUM REUNION_CI REUNION_RMW REUNION_R34_NE REUNION_R34_SE REUNION_R34_SW REUNION_R34_NW REUNION_R50_NE REUNION_R50_SE REUNION_R50_SW REUNION_R50_NW REUNION_R64_NE REUNION_R64_SE REUNION_R64_SW REUNION_R64_NW BOM_LAT BOM_LON BOM_TYPE BOM_WIND BOM_PRES BOM_TNUM BOM_CI BOM_RMW BOM_R34_NE BOM_R34_SE BOM_R34_SW BOM_R34_NW BOM_R50_NE BOM_R50_SE BOM_R50_SW BOM_R50_NW BOM_R64_NE BOM_R64_SE BOM_R64_SW BOM_R64_NW BOM_ROCI BOM_POCI BOM_EYE BOM_POS_METHOD BOM_PRES_METHOD NADI_LAT NADI_LON NADI_CAT NADI_WIND NADI_PRES WELLINGTON_LAT WELLINGTON_LON WELLINGTON_WIND WELLINGTON_PRES DS824_LAT DS824_LON DS824_STAGE DS824_WIND DS824_PRES TD9636_LAT TD9636_LON TD9636_STAGE TD9636_WIND TD9636_PRES TD9635_LAT TD9635_LON TD9635_WIND TD9635_PRES TD9635_ROCI NEUMANN_LAT NEUMANN_LON NEUMANN_CLASS NEUMANN_WIND NEUMANN_PRES MLC_LAT MLC_LON MLC_CLASS MLC_WIND MLC_PRES USA_GUST BOM_GUST BOM_GUST_PER REUNION_GUST REUNION_GUST_PER USA_SEAHGT USA_SEARAD_NE USA_SEARAD_SE USA_SEARAD_SW USA_SEARAD_NW STORM_SPEED STORM_DIR
1959064S13108 1959 25 SI WA NOT_NAMED 1959-03-04 23:00:00 NR -12.7000 107.700 main 554 554 __________O___ -1 -12.7000 107.700 1 1 0
1959064S13108 1959 25 SI WA NOT_NAMED 1959-03-05 00:00:00 TS -12.7231 107.697 main 554 554 O________OP___ jtwc_sh SH241959 -12.7000 107.700 -1 -12.7000 107.700 TC -12.7461 107.694 1 3 154
1959064S13108 1959 25 SI WA NOT_NAMED 1959-03-05 01:00:00 TS -12.7945 107.735 1007 bom main 565 565 P_____O__PP___ SH241959 -12.7446 107.704 -1 -13.0000 108.000 1007 -12.7446 107.704 TC -12.7924 107.688 1 4 167
1959064S13108 1959 25 SI WA NOT_NAMED 1959-03-05 03:00:00 TS -12.9035 107.731 main 576 576 P_____P__PP___ SH241959 -12.8375 107.710 -1 -13.1363 107.906 -12.8375 107.710 TC -12.8862 107.675 1 3 189
1959064S13108 1959 25 SI WA NOT_NAMED 1959-03-05 06:00:00 TS -13.0762 107.700 main 598 598 O_____P__OP___ jtwc_sh SH241959 -13.0000 107.700 -1 -13.3381 107.766 -13.0000 107.700 TC -13.0320 107.652 1 4 194
1959064S13108 1959 25 SI WA NOT_NAMED 1959-03-05 09:00:00 TS -13.2804 107.642 main 622 622 P_____P__PP___ SH241959 -13.2000 107.658 -1 -13.5333 107.630 -13.2000 107.658 TC -13.1881 107.623 1 4 197
1959064S13108 1959 25 SI WA NOT_NAMED 1959-03-05 11:00:00 TS -13.4077 107.596 main 633 633 P_____P__PO___ SH241959 -13.3364 107.619 -1 -13.6578 107.543 -13.3364 107.619 TC -13.3000 107.600 1 4 201
1959064S13108 1959 25 SI WA NOT_NAMED 1959-03-05 12:00:00 TS -13.4692 107.572 main 644 644 O_____P__OP___ jtwc_sh SH241959 -13.4000 107.600 -1 -13.7179 107.502 -13.4000 107.600 TC -13.3587 107.587 1 4 201
1959064S13108 1959 25 SI WA NOT_NAMED 1959-03-05 15:00:00 TS -13.6324 107.506 main 657 657 P_____P__PP___ SH241959 -13.5500 107.550 -1 -13.8881 107.384 -13.5500 107.550 TC -13.5417 107.541 1 3 201
1959064S13108 1959 25 SI WA NOT_NAMED 1959-03-05 18:00:00 TS -13.7913 107.442 main 680 680 O_____P__OP___ jtwc_sh SH241959 -13.7000 107.500 -1 -14.0397 107.278 -13.7000 107.500 TC -13.7256 107.490 1 4 200
1959064S13108 1959 25 SI WA NOT_NAMED 1959-03-05 21:00:00 TS -13.9742 107.381 main 702 702 P_____P__PP___ SH241959 -13.9150 107.450 -1 -14.1691 107.189 -13.9150 107.450 TC -13.8978 107.436 1 4 199
1959064S13108 1959 25 SI WA NOT_NAMED 1959-03-05 23:00:00 TS -14.0842 107.343 main 715 715 P_____P__PO___ SH241959 -14.0478 107.417 -1 -14.2410 107.140 -14.0478 107.417 TC -14.0000 107.400 1 3 202
1959064S13108 1959 25 SI WA NOT_NAMED 1959-03-06 00:00:00 TS -14.1299 107.312 main 715 715 O_____P__OP___ jtwc_sh SH241959 -14.1000 107.400 -1 -14.2722 107.119 -14.1000 107.400 TC -14.0299 107.383 1 3 219
1959064S13108 1959 25 SI WA NOT_NAMED 1959-03-06 01:00:00 TS -14.1591 107.284 1004 bom main 726 726 P_____O__PP___ SH241959 -14.1285 107.383 -1 -14.3000 107.100 1004 -14.1285 107.383 TC -14.0549 107.367 1 2 227
1959064S13108 1959 25 SI WA NOT_NAMED 1959-03-06 03:00:00 TS -14.1954 107.244 main 728 728 P_____P__PP___ SH241959 -14.1575 107.350 -1 -14.3460 107.070 -14.1575 107.350 TC -14.0973 107.333 1 1 226
1959064S13108 1959 25 SI WA NOT_NAMED 1959-03-06 06:00:00 TS -14.2456 107.193 main 728 728 O_____P__OP___ jtwc_sh SH241959 -14.2000 107.300 -1 -14.3993 107.037 -14.2000 107.300 TC -14.1656 107.283 1 2 213
1959064S13108 1959 25 SI WA NOT_NAMED 1959-03-06 09:00:00 TS -14.3286 107.152 main 739 739 P_____P__PP___ SH241959 -14.2975 107.250 -1 -14.4481 107.014 -14.2975 107.250 TC -14.2784 107.233 1 2 201
1959064S13108 1959 25 SI WA NOT_NAMED 1959-03-06 11:00:00 TS -14.4191 107.124 main 752 752 P_____P__PO___ SH241959 -14.4162 107.217 -1 -14.4861 107.000 -14.4162 107.217 TC -14.4000 107.200 1 3 191
1959064S13108 1959 25 SI WA NOT_NAMED 1959-03-06 12:00:00 TS -14.4841 107.110 main 763 763 O_____P__OP___ jtwc_sh SH241959 -14.5000 107.200 -1 -14.5086 106.992 -14.5000 107.200 TC -14.5004 107.189 1 5 190
1959064S13108 1959 25 SI WA NOT_NAMED 1959-03-06 15:00:00 TS -14.7495 107.069 main 785 785 P_____P__PP___ SH241959 -14.8700 107.150 -1 -14.5969 106.962 -14.8700 107.150 TC -14.8673 107.160 1 6 189
1959064S13108 1959 25 SI WA NOT_NAMED 1959-03-06 18:00:00 TS -15.0679 107.020 main 831 831 O_____P__OP___ jtwc_sh SH241959 -15.3000 107.100 -1 -14.7292 106.916 -15.3000 107.100 TC -15.2818 107.123 1 7 188
1959064S13108 1959 25 SI WA NOT_NAMED 1959-03-06 21:00:00 TS -15.3964 106.965 main 864 864 P_____P__PP___ SH241959 -15.7025 107.065 -1 -14.9217 106.846 -15.7025 107.065 TC -15.6782 107.062 1 7 191
1959064S13108 1959 25 SI WA NOT_NAMED 1959-03-06 23:00:00 TS -15.6031 106.914 main 888 888 P_____P__PO___ SH241959 -15.9202 107.028 -1 -15.0915 106.781 -15.9202 107.028 TC -15.9000 107.000 1 6 194
1959064S13108 1959 25 SI WA NOT_NAMED 1959-03-07 00:00:00 TS -15.6907 106.882 main 899 899 O_____P__OP___ jtwc_sh SH241959 -16.0000 107.000 -1 -15.1906 106.743 -16.0000 107.000 TC -15.9628 106.967 1 5 204
1959064S13108 1959 25 SI WA NOT_NAMED 1959-03-07 01:00:00 TS -15.7652 106.846 1003 bom main 912 912 P_____O__PP___ SH241959 -16.0430 106.967 -1 -15.3000 106.700 1003 -16.0430 106.967 TC -16.0141 106.930 1 5 208
1959064S13108 1959 25 SI WA NOT_NAMED 1959-03-07 03:00:00 TS -15.8996 106.765 main 923 923 P_____P__PP___ SH241959 -16.0725 106.880 -1 -15.5627 106.631 1002 -16.0725 106.880 TC -16.0911 106.843 1 5 214
1959064S13108 1959 25 SI WA NOT_NAMED 1959-03-07 06:00:00 TS -16.1065 106.604 main 949 949 O_____P__OP___ jtwc_sh SH241959 -16.1000 106.700 -1 -16.0124 106.495 1001 -16.1000 106.700 TC -16.1779 106.679 1 6 217
1959064S13108 1959 25 SI WA NOT_NAMED 1959-03-07 09:00:00 TS -16.3743 106.393 main 986 986 P_____P__PP___ SH241959 -16.2475 106.472 -1 -16.5017 106.294 1000 -16.2475 106.472 TC -16.2856 106.469 1 7 218
1959064S13108 1959 25 SI WA NOT_NAMED 1959-03-07 11:00:00 TS -16.5819 106.218 main 1010 1003 P_____P__PO___ SH241959 -16.4026 106.294 -1 -16.8348 106.110 999 -16.4026 106.294 TC -16.4000 106.300 1 8 218
1959064S13108 1959 25 SI WA NOT_NAMED 1959-03-07 12:00:00 TS -16.6993 106.124 999 bom main 1012 1005 O_____O__OP___ jtwc_sh SH241959 -16.5000 106.200 -1 -17.0000 106.000 999 -16.5000 106.200 TC -16.4963 106.218 1 9 217
1959064S13108 1959 25 SI WA NOT_NAMED 1959-03-07 15:00:00 TS -17.0777 105.828 main 1013 1006 P_____P__PP___ SH241959 -16.8774 105.930 -1 -17.5151 105.592 999 -16.8774 105.930 TC -16.8423 105.938 1 10 218
1959064S13108 1959 25 SI WA NOT_NAMED 1959-03-07 17:00:00 TS -17.3332 105.600 999 bom main 1018 1013 P_____O__PP___ SH241959 -17.1618 105.720 -1 -17.8000 105.300 999 -17.1618 105.720 TC -17.1044 105.720 1 10 222
1959064S13108 1959 25 SI WA NOT_NAMED 1959-03-07 18:00:00 TS -17.4479 105.484 main 1022 1016 O_____P__OP___ jtwc_sh SH241959 -17.3000 105.600 -1 -17.8817 105.196 999 -17.3000 105.600 TC -17.2400 105.601 1 10 229
1959064S13108 1959 25 SI WA NOT_NAMED 1959-03-07 21:00:00 TS -17.7531 105.095 main 1036 1036 P_____P__PP___ SH241959 -17.6724 105.187 -1 -17.9988 104.911 999 -17.6724 105.187 TC -17.6461 105.203 1 10 233
1959064S13108 1959 25 SI WA NOT_NAMED 1959-03-07 23:00:00 TS -17.9477 104.784 main 1057 1051 P_____P__PO___ SH241959 -17.8973 104.869 -1 -18.0624 104.665 999 -17.8973 104.869 TC -17.9000 104.900 2 11 238
1959064S13108 1959 25 SI WA NOT_NAMED 1959-03-08 00:00:00 TS -18.0426 104.607 main 1069 1064 O_____P__OP___ jtwc_sh SH241959 -18.0000 104.700 -1 -18.1174 104.501 999 -18.0000 104.700 TC -17.9954 104.733 2 12 241
1959064S13108 1959 25 SI WA NOT_NAMED 1959-03-08 01:00:00 TS -18.1458 104.411 999 bom main 1082 1077 P_____O__PP___ SH241959 -18.0921 104.531 -1 -18.2000 104.300 999 -18.0921 104.531 TC -18.0856 104.557 2 14 241
1959064S13108 1959 25 SI WA NOT_NAMED 1959-03-08 03:00:00 TS -18.3775 103.961 main 1104 1104 P_____P__PP___ SH241959 -18.2574 104.172 -1 -18.5264 103.703 995 -18.2574 104.172 TC -18.2556 104.182 2 15 243
1959064S13108 1959 25 SI WA NOT_NAMED 1959-03-08 06:00:00 TS -18.7011 103.277 990 bom main 1156 1156 O_____O__OP___ jtwc_sh SH241959 -18.5000 103.600 -1 -19.0000 102.800 990 -18.5000 103.600 TC -18.5053 103.585 2 13 245
1959064S13108 1959 25 SI WA NOT_NAMED 1959-03-08 09:00:00 TS -18.9279 102.717 main 1205 1201 P_____P__PP___ SH241959 -18.7550 103.000 -1 -19.1788 102.290 996 -18.7550 103.000 TC -18.7819 102.983 2 11 246
1959064S13108 1959 25 SI WA NOT_NAMED 1959-03-08 11:00:00 TS -19.0673 102.394 main 1227 1227 P_____P__PO___ SH241959 -18.9688 102.597 -1 -19.2013 102.083 1000 -18.9688 102.597 TC -19.0000 102.600 1 10 244
1959064S13108 1959 25 SI WA NOT_NAMED 1959-03-08 12:00:00 TS -19.1483 102.240 1002 bom main 1246 1243 O_____O__OP___ jtwc_sh SH241959 -19.1000 102.400 -1 -19.2000 102.000 1002 -19.1000 102.400 TC -19.1414 102.402 1 10 237
1959064S13108 1959 25 SI WA NOT_NAMED 1959-03-08 15:00:00 TS -19.4423 101.772 main 1275 1275 P_____P__PP___ SH241959 -19.6351 101.806 -1 -19.1619 101.706 1001 -19.6351 101.806 TC -19.6139 101.818 1 10 234
1959064S13108 1959 25 SI WA NOT_NAMED 1959-03-08 18:00:00 TS -19.7354 101.383 main 1305 1302 O_____P__OP___ jtwc_sh SH241959 -20.2000 101.300 -1 -19.0724 101.491 1001 -20.2000 101.300 TC -20.1196 101.293 1 8 230
1959064S13108 1959 25 SI WA NOT_NAMED 1959-03-08 21:00:00 TS -19.9887 101.087 main 1326 1326 P_____P__PP___ SH241959 -20.6448 100.910 -1 -19.0093 101.337 1001 -20.6448 100.910 TC -20.6083 100.882 1 7 224
1959064S13108 1959 25 SI WA NOT_NAMED 1959-03-08 23:00:00 TS -20.1530 100.957 main 1331 1331 P_____P__PO___ SH241959 -20.8916 100.747 -1 -19.0201 101.261 1001 -20.8916 100.747 TC -20.9000 100.700 1 6 213
1959064S13108 1959 25 SI WA NOT_NAMED 1959-03-09 00:00:00 TS -20.2336 100.915 main 1341 1338 O_____P__OP___ jtwc_sh SH241959 -21.0000 100.700 -1 -19.0500 101.229 1001 -21.0000 100.700 TC -21.0181 100.647 1 5 202
1959064S13108 1959 25 SI WA NOT_NAMED 1959-03-09 01:00:00 TS -20.3210 100.884 1001 bom main 1338 1333 P_____O__PP___ SH241959 -21.0978 100.674 -1 -19.1000 101.200 1001 -21.0978 100.674 TC -21.1283 100.615 1 6 192
1959064S13108 1959 25 SI WA NOT_NAMED 1959-03-09 03:00:00 TS -20.5127 100.861 main 1333 1326 P_____P__PP___ SH241959 -21.2649 100.690 -1 -19.3108 101.132 999 -21.2649 100.690 TC -21.3289 100.608 1 6 0
1959064S13108 1959 25 SI WA NOT_NAMED 1959-03-09 06:00:00 TS -20.8268 100.893 main 1326 1318 O_____P__OP___ jtwc_sh SH241959 -21.5000 100.800 -1 -19.7377 101.062 998 -21.5000 100.800 TC -21.5938 100.704 1 7 173
1959064S13108 1959 25 SI WA NOT_NAMED 1959-03-09 09:00:00 TS -21.1878 100.947 main 1318 1305 P_____P__PP___ SH241959 -21.8075 100.900 -1 -20.2272 101.021 996 -21.8075 100.900 TC -21.8374 100.874 1 7 171
1959064S13108 1959 25 SI WA NOT_NAMED 1959-03-09 11:00:00 TS -21.4252 100.991 main 1305 1303 P_____P__PO___ SH241959 -22.0088 100.970 -1 -20.5491 101.005 995 -22.0088 100.970 TC -22.0000 101.000 1 7 172
1959064S13108 1959 25 SI WA NOT_NAMED 1959-03-09 12:00:00 TS -21.5316 101.001 995 bom main 1303 1300 O_____O__OP___ jtwc_sh SH241959 -22.1000 101.000 -1 -20.7000 101.000 995 4 -22.1000 101.000 TC -22.0580 101.007 1 5 0
1959064S13108 1959 25 SI WA NOT_NAMED 1959-03-09 15:00:00 TS -21.7379 100.966 main 1300 1297 P_____P__PP___ SH241959 -22.2849 101.013 -1 -20.9567 100.886 995 -22.2849 101.013 TC -22.2180 101.031 1 4 182
1959064S13108 1959 25 SI WA NOT_NAMED 1959-03-09 18:00:00 TS -21.9557 100.983 main 1294 1278 O_____P__OP___ jtwc_sh SH241959 -22.5000 101.100 -1 -21.1790 100.793 995 -22.5000 101.100 TC -22.4237 101.117 1 5 164
1959064S13108 1959 25 SI WA NOT_NAMED 1959-03-09 21:00:00 TS -22.2494 101.124 main 1278 1251 P_____P__PP___ SH241959 -22.7870 101.339 -1 -21.4444 100.781 995 -22.7870 101.339 TC -22.7606 101.339 1 8 152
1959064S13108 1959 25 SI WA NOT_NAMED 1959-03-09 23:00:00 TS -22.5411 101.321 main 1251 1236 P_____P__PO___ SH241959 -23.0930 101.617 -1 -21.6838 100.850 995 -23.0930 101.617 TC -23.1000 101.600 1 12 147
1959064S13108 1959 25 SI WA NOT_NAMED 1959-03-10 00:00:00 TS -22.7315 101.460 main 1226 1212 O_____P__OP___ jtwc_sh SH241959 -23.3000 101.800 -1 -21.8308 100.913 995 -23.3000 101.800 TC -23.3269 101.784 1 15 146
1959064S13108 1959 25 SI WA NOT_NAMED 1959-03-10 01:00:00 TS -22.9542 101.623 996 bom main 1210 1163 P_____O__PP___ SH241959 -23.5513 102.007 -1 -22.0000 101.000 996 -23.5513 102.007 TC -23.5807 101.996 1 18 145
1959064S13108 1959 25 SI WA NOT_NAMED 1959-03-10 03:00:00 TS -23.4836 102.029 main 1161 1081 P_____P__PP___ SH241959 -24.1602 102.510 -1 -22.4109 101.248 -24.1602 102.510 TC -24.1560 102.491 1 22 144
1959064S13108 1959 25 SI WA NOT_NAMED 1959-03-10 06:00:00 TS -24.4176 102.788 main 1071 973 O_____P__OP___ jtwc_sh SH241959 -25.2000 103.400 -1 -23.1963 101.795 -25.2000 103.400 TC -25.1411 103.370 1 24 143
1959064S13108 1959 25 SI WA NOT_NAMED 1959-03-10 09:00:00 TS -25.4175 103.657 main 963 907 P_____P__PP___ SH241959 -26.1999 104.336 -1 -24.1587 102.535 -26.1999 104.336 TC -26.1973 104.342 1 26 141
1959064S13108 1959 25 SI WA NOT_NAMED 1959-03-10 11:00:00 TS -26.1168 104.286 main 897 876 P_____P__PO___ SH241959 -26.8697 104.982 -1 -24.8840 103.124 -26.8697 104.982 TC -26.9000 105.000 1 25 141
1959064S13108 1959 25 SI WA NOT_NAMED 1959-03-10 12:00:00 TS -26.3900 104.530 main 875 791 O_____P__OP___ jtwc_sh SH241959 -27.2000 105.300 -1 -25.2683 103.445 -27.2000 105.300 TC -27.2426 105.324 1 25 141
1959064S13108 1959 25 SI WA NOT_NAMED 1959-03-10 15:00:00 TS -27.3872 105.430 main 792 726 P_____P__PP___ SH241959 -28.1632 106.215 -1 -26.4938 104.505 -28.1632 106.215 TC -28.2331 106.268 1 25 141
1959064S13108 1959 25 SI WA NOT_NAMED 1959-03-10 18:00:00 TS -28.3635 106.320 main 729 686 O_____P__OP___ jtwc_sh SH241959 -29.1000 107.100 -1 -27.8031 105.690 -29.1000 107.100 TC -29.1799 107.186 1 26 141
1959064S13108 1959 25 SI WA NOT_NAMED 1959-03-10 21:00:00 TS -29.4057 107.291 main 683 641 ______P___P___ SH241959 -1 -29.1633 106.977 TC -30.0976 108.093 1 29 140
1959064S13108 1959 25 SI WA NOT_NAMED 1959-03-10 23:00:00 TS -30.2101 108.073 main 636 626 ______P___O___ SH241959 -1 -30.0823 107.877 TC -30.7000 108.700 1 30 141
1959064S13108 1959 25 SI WA NOT_NAMED 1959-03-11 00:00:00 TS -30.5613 108.391 main 626 609 ______P_______ -1 -30.5419 108.336 1 30 142
1959064S13108 1959 25 SI WA NOT_NAMED 1959-03-11 01:00:00 NR -31.0000 108.800 bom main 603 ______O_______ -1 -31.0000 108.800 1 34 141

IBTrACS Databaseについて

本データベースは、米国NOAAが公開する1842年以降の世界の熱帯低気圧のベストトラックデータアーカイブInternational Best Track Archive for Climate Stewardship (IBTrACS)を、ウェブで閲覧しやすい形式に変換したものです。

最終更新日:2021-11-26